sensor_id;sensor_type;location;lat;lon;timestamp;pressure;altitude;pressure_sealevel;temperature;humidity
4972;BME280;2501;51.214;6.768;2023-11-19T00:00:22;100672.00;;;9.90;100.00
4972;BME280;2501;51.214;6.768;2023-11-19T00:02:50;100666.09;;;10.16;100.00
4972;BME280;2501;51.214;6.768;2023-11-19T00:05:19;100653.91;;;10.22;100.00
4972;BME280;2501;51.214;6.768;2023-11-19T00:07:50;100660.91;;;10.20;100.00
4972;BME280;2501;51.214;6.768;2023-11-19T00:10:18;100677.44;;;10.16;100.00
4972;BME280;2501;51.214;6.768;2023-11-19T00:12:48;100683.66;;;10.29;100.00
4972;BME280;2501;51.214;6.768;2023-11-19T00:15:17;100703.72;;;10.24;100.00
4972;BME280;2501;51.214;6.768;2023-11-19T00:17:47;100704.00;;;10.71;100.00
4972;BME280;2501;51.214;6.768;2023-11-19T00:20:17;100701.47;;;10.88;100.00
4972;BME280;2501;51.214;6.768;2023-11-19T00:22:50;100701.44;;;10.85;100.00
4972;BME280;2501;51.214;6.768;2023-11-19T00:25:20;100707.63;;;11.02;100.00
4972;BME280;2501;51.214;6.768;2023-11-19T00:27:49;100697.16;;;11.17;100.00
4972;BME280;2501;51.214;6.768;2023-11-19T00:30:19;100692.81;;;11.27;100.00
4972;BME280;2501;51.214;6.768;2023-11-19T00:32:47;100687.56;;;11.33;100.00
4972;BME280;2501;51.214;6.768;2023-11-19T00:35:16;100694.63;;;11.57;100.00
4972;BME280;2501;51.214;6.768;2023-11-19T00:37:44;100680.63;;;11.71;100.00
4972;BME280;2501;51.214;6.768;2023-11-19T00:40:17;100690.25;;;11.78;100.00
4972;BME280;2501;51.214;6.768;2023-11-19T00:42:48;100683.25;;;11.83;100.00
4972;BME280;2501;51.214;6.768;2023-11-19T00:45:16;100686.78;;;11.95;100.00
4972;BME280;2501;51.214;6.768;2023-11-19T00:47:45;100678.88;;;11.89;100.00
4972;BME280;2501;51.214;6.768;2023-11-19T00:50:13;100670.13;;;11.90;100.00
4972;BME280;2501;51.214;6.768;2023-11-19T00:52:43;100672.75;;;11.80;100.00
4972;BME280;2501;51.214;6.768;2023-11-19T00:55:12;100673.63;;;11.79;100.00
4972;BME280;2501;51.214;6.768;2023-11-19T00:57:43;100670.97;;;11.70;100.00
4972;BME280;2501;51.214;6.768;2023-11-19T01:00:12;100665.72;;;11.79;100.00
4972;BME280;2501;51.214;6.768;2023-11-19T01:02:44;100675.38;;;11.91;100.00
4972;BME280;2501;51.214;6.768;2023-11-19T01:05:14;100665.72;;;12.01;100.00
4972;BME280;2501;51.214;6.768;2023-11-19T01:07:46;100663.97;;;12.09;100.00
4972;BME280;2501;51.214;6.768;2023-11-19T01:10:15;100663.06;;;12.13;100.00
4972;BME280;2501;51.214;6.768;2023-11-19T01:12:46;100653.47;;;12.07;100.00
4972;BME280;2501;51.214;6.768;2023-11-19T01:15:15;100657.81;;;12.13;100.00
4972;BME280;2501;51.214;6.768;2023-11-19T01:17:44;100669.25;;;11.84;100.00
4972;BME280;2501;51.214;6.768;2023-11-19T01:20:12;100653.44;;;12.16;100.00
4972;BME280;2501;51.214;6.768;2023-11-19T01:22:41;100652.56;;;12.14;100.00
4972;BME280;2501;51.214;6.768;2023-11-19T01:25:10;100654.31;;;12.20;100.00
4972;BME280;2501;51.214;6.768;2023-11-19T01:27:39;100647.28;;;12.27;100.00
4972;BME280;2501;51.214;6.768;2023-11-19T01:30:11;100649.00;;;12.34;100.00
4972;BME280;2501;51.214;6.768;2023-11-19T01:32:40;100654.22;;;12.47;100.00
4972;BME280;2501;51.214;6.768;2023-11-19T01:35:09;100658.63;;;12.36;100.00
4972;BME280;2501;51.214;6.768;2023-11-19T01:37:37;100644.59;;;12.40;100.00
4972;BME280;2501;51.214;6.768;2023-11-19T01:40:06;100656.78;;;12.64;100.00
4972;BME280;2501;51.214;6.768;2023-11-19T01:42:37;100666.41;;;12.77;100.00
4972;BME280;2501;51.214;6.768;2023-11-19T01:45:07;100663.75;;;12.77;100.00
4972;BME280;2501;51.214;6.768;2023-11-19T01:47:38;100652.28;;;12.90;100.00
4972;BME280;2501;51.214;6.768;2023-11-19T01:50:07;100654.09;;;12.81;100.00
4972;BME280;2501;51.214;6.768;2023-11-19T01:52:36;100654.06;;;12.82;100.00
4972;BME280;2501;51.214;6.768;2023-11-19T01:55:06;100659.31;;;12.87;100.00
4972;BME280;2501;51.214;6.768;2023-11-19T01:57:34;100655.81;;;12.83;100.00
4972;BME280;2501;51.214;6.768;2023-11-19T02:00:04;100658.41;;;12.93;100.00
4972;BME280;2501;51.214;6.768;2023-11-19T02:02:39;100665.44;;;12.97;100.00
4972;BME280;2501;51.214;6.768;2023-11-19T02:05:08;100661.13;;;12.80;100.00
4972;BME280;2501;51.214;6.768;2023-11-19T02:07:37;100657.63;;;12.78;100.00
4972;BME280;2501;51.214;6.768;2023-11-19T02:10:06;100659.28;;;12.93;100.00
4972;BME280;2501;51.214;6.768;2023-11-19T02:12:38;100650.47;;;13.00;100.00
4972;BME280;2501;51.214;6.768;2023-11-19T02:15:08;100639.09;;;12.97;100.00
4972;BME280;2501;51.214;6.768;2023-11-19T02:17:40;100629.50;;;12.82;100.00
4972;BME280;2501;51.214;6.768;2023-11-19T02:20:09;100616.31;;;12.91;100.00
4972;BME280;2501;51.214;6.768;2023-11-19T02:22:40;100606.69;;;12.84;100.00
4972;BME280;2501;51.214;6.768;2023-11-19T02:25:15;100592.75;;;12.67;100.00
4972;BME280;2501;51.214;6.768;2023-11-19T02:27:51;100588.41;;;12.57;100.00
4972;BME280;2501;51.214;6.768;2023-11-19T02:30:24;100597.09;;;12.72;100.00
4972;BME280;2501;51.214;6.768;2023-11-19T02:32:54;100591.03;;;12.60;100.00
4972;BME280;2501;51.214;6.768;2023-11-19T02:35:24;100596.25;;;12.66;100.00
4972;BME280;2501;51.214;6.768;2023-11-19T02:37:52;100591.81;;;12.77;100.00
4972;BME280;2501;51.214;6.768;2023-11-19T02:40:21;100590.84;;;12.96;100.00
4972;BME280;2501;51.214;6.768;2023-11-19T02:42:52;100581.09;;;13.15;100.00
4972;BME280;2501;51.214;6.768;2023-11-19T02:45:22;100586.34;;;13.12;100.00
4972;BME280;2501;51.214;6.768;2023-11-19T02:47:51;100598.69;;;13.01;100.00
4972;BME280;2501;51.214;6.768;2023-11-19T02:50:20;100591.72;;;12.98;100.00
4972;BME280;2501;51.214;6.768;2023-11-19T02:52:52;100592.59;;;12.99;100.00
4972;BME280;2501;51.214;6.768;2023-11-19T02:55:21;100598.78;;;12.88;100.00
4972;BME280;2501;51.214;6.768;2023-11-19T02:57:53;100602.25;;;12.92;100.00
4972;BME280;2501;51.214;6.768;2023-11-19T03:00:24;100582.94;;;12.98;100.00
4972;BME280;2501;51.214;6.768;2023-11-19T03:02:59;100590.84;;;12.98;100.00
4972;BME280;2501;51.214;6.768;2023-11-19T03:05:35;100593.56;;;12.81;100.00
4972;BME280;2501;51.214;6.768;2023-11-19T03:08:06;100585.66;;;12.81;100.00
4972;BME280;2501;51.214;6.768;2023-11-19T03:10:34;100582.97;;;12.88;100.00
4972;BME280;2501;51.214;6.768;2023-11-19T03:13:05;100574.97;;;13.05;100.00
4972;BME280;2501;51.214;6.768;2023-11-19T03:15:40;100568.75;;;13.17;100.00
4972;BME280;2501;51.214;6.768;2023-11-19T03:18:08;100564.34;;;13.22;100.00
4972;BME280;2501;51.214;6.768;2023-11-19T03:20:37;100558.22;;;13.20;100.00
4972;BME280;2501;51.214;6.768;2023-11-19T03:23:06;100557.34;;;13.16;100.00
4972;BME280;2501;51.214;6.768;2023-11-19T03:25:34;100571.44;;;13.15;100.00
4972;BME280;2501;51.214;6.768;2023-11-19T03:28:05;100567.84;;;13.22;100.00
4972;BME280;2501;51.214;6.768;2023-11-19T03:30:34;100568.69;;;13.26;100.00
4972;BME280;2501;51.214;6.768;2023-11-19T03:33:02;100559.06;;;13.22;100.00
4972;BME280;2501;51.214;6.768;2023-11-19T03:35:31;100559.03;;;13.27;100.00
4972;BME280;2501;51.214;6.768;2023-11-19T03:37:59;100579.22;;;13.31;100.00
4972;BME280;2501;51.214;6.768;2023-11-19T03:40:28;100578.34;;;13.27;100.00
4972;BME280;2501;51.214;6.768;2023-11-19T03:42:56;100581.78;;;13.37;100.00
4972;BME280;2501;51.214;6.768;2023-11-19T03:45:28;100573.84;;;13.40;100.00
4972;BME280;2501;51.214;6.768;2023-11-19T03:47:56;100578.22;;;13.41;100.00
4972;BME280;2501;51.214;6.768;2023-11-19T03:50:25;100576.56;;;13.32;100.00
4972;BME280;2501;51.214;6.768;2023-11-19T03:52:53;100584.53;;;13.21;100.00
4972;BME280;2501;51.214;6.768;2023-11-19T03:55:22;100588.94;;;13.16;100.00
4972;BME280;2501;51.214;6.768;2023-11-19T03:57:50;100589.78;;;13.24;100.00
4972;BME280;2501;51.214;6.768;2023-11-19T04:00:20;100596.81;;;13.22;100.00
4972;BME280;2501;51.214;6.768;2023-11-19T04:02:51;100595.88;;;13.31;100.00
4972;BME280;2501;51.214;6.768;2023-11-19T04:05:19;100600.28;;;13.32;100.00
4972;BME280;2501;51.214;6.768;2023-11-19T04:07:48;100601.22;;;13.19;100.00
4972;BME280;2501;51.214;6.768;2023-11-19T04:10:16;100594.19;;;13.19;100.00
4972;BME280;2501;51.214;6.768;2023-11-19T04:12:45;100588.97;;;13.13;100.00
4972;BME280;2501;51.214;6.768;2023-11-19T04:15:14;100607.47;;;13.01;100.00
4972;BME280;2501;51.214;6.768;2023-11-19T04:17:43;100589.03;;;13.00;100.00
4972;BME280;2501;51.214;6.768;2023-11-19T04:20:14;100579.44;;;12.93;100.00
4972;BME280;2501;51.214;6.768;2023-11-19T04:22:43;100591.66;;;13.00;100.00
4972;BME280;2501;51.214;6.768;2023-11-19T04:25:11;100584.63;;;13.05;100.00
4972;BME280;2501;51.214;6.768;2023-11-19T04:27:40;100595.13;;;13.11;100.00
4972;BME280;2501;51.214;6.768;2023-11-19T04:30:09;100609.09;;;13.27;100.00
4972;BME280;2501;51.214;6.768;2023-11-19T04:32:39;100602.94;;;13.26;100.00
4972;BME280;2501;51.214;6.768;2023-11-19T04:35:08;100609.97;;;13.26;100.00
4972;BME280;2501;51.214;6.768;2023-11-19T04:37:39;100605.63;;;13.14;100.00
4972;BME280;2501;51.214;6.768;2023-11-19T04:40:10;100600.47;;;12.99;100.00
4972;BME280;2501;51.214;6.768;2023-11-19T04:42:39;100603.06;;;13.02;100.00
4972;BME280;2501;51.214;6.768;2023-11-19T04:45:09;100610.19;;;12.81;100.00
4972;BME280;2501;51.214;6.768;2023-11-19T04:47:37;100605.88;;;12.68;100.00
4972;BME280;2501;51.214;6.768;2023-11-19T04:50:07;100593.69;;;12.55;100.00
4972;BME280;2501;51.214;6.768;2023-11-19T04:52:39;100596.25;;;12.70;100.00
4972;BME280;2501;51.214;6.768;2023-11-19T04:55:10;100602.53;;;12.43;100.00
4972;BME280;2501;51.214;6.768;2023-11-19T04:57:39;100592.78;;;12.62;100.00
4972;BME280;2501;51.214;6.768;2023-11-19T05:00:09;100598.88;;;12.66;100.00
4972;BME280;2501;51.214;6.768;2023-11-19T05:02:39;100605.00;;;12.71;100.00
4972;BME280;2501;51.214;6.768;2023-11-19T05:05:07;100599.75;;;12.69;100.00
4972;BME280;2501;51.214;6.768;2023-11-19T05:07:38;100600.63;;;12.73;100.00
4972;BME280;2501;51.214;6.768;2023-11-19T05:10:08;100617.31;;;12.66;100.00
4972;BME280;2501;51.214;6.768;2023-11-19T05:12:36;100612.03;;;12.70;100.00
4972;BME280;2501;51.214;6.768;2023-11-19T05:15:06;100612.97;;;12.63;100.00
4972;BME280;2501;51.214;6.768;2023-11-19T05:17:34;100621.75;;;12.59;100.00
4972;BME280;2501;51.214;6.768;2023-11-19T05:20:04;100623.47;;;12.62;100.00
4972;BME280;2501;51.214;6.768;2023-11-19T05:22:41;100612.91;;;12.69;100.00
4972;BME280;2501;51.214;6.768;2023-11-19T05:25:09;100616.50;;;12.54;100.00
4972;BME280;2501;51.214;6.768;2023-11-19T05:27:38;100613.84;;;12.61;100.00
4972;BME280;2501;51.214;6.768;2023-11-19T05:30:07;100622.63;;;12.52;100.00
4972;BME280;2501;51.214;6.768;2023-11-19T05:32:36;100632.28;;;12.47;100.00
4972;BME280;2501;51.214;6.768;2023-11-19T05:35:07;100634.09;;;12.43;100.00
4972;BME280;2501;51.214;6.768;2023-11-19T05:37:35;100632.25;;;12.61;100.00
4972;BME280;2501;51.214;6.768;2023-11-19T05:40:08;100635.72;;;12.64;100.00
4972;BME280;2501;51.214;6.768;2023-11-19T05:42:39;100631.31;;;12.77;100.00
4972;BME280;2501;51.214;6.768;2023-11-19T05:45:10;100633.97;;;12.66;100.00
4972;BME280;2501;51.214;6.768;2023-11-19T05:47:39;100649.75;;;12.71;100.00
4972;BME280;2501;51.214;6.768;2023-11-19T05:50:09;100633.06;;;12.72;100.00
4972;BME280;2501;51.214;6.768;2023-11-19T05:52:37;100626.94;;;12.67;100.00
4972;BME280;2501;51.214;6.768;2023-11-19T05:55:08;100638.31;;;12.79;100.00
4972;BME280;2501;51.214;6.768;2023-11-19T05:57:38;100642.72;;;12.73;100.00
4972;BME280;2501;51.214;6.768;2023-11-19T06:00:09;100635.78;;;12.60;100.00
4972;BME280;2501;51.214;6.768;2023-11-19T06:02:39;100638.41;;;12.57;100.00
4972;BME280;2501;51.214;6.768;2023-11-19T06:05:08;100638.41;;;12.53;100.00
4972;BME280;2501;51.214;6.768;2023-11-19T06:07:36;100648.88;;;12.69;100.00
4972;BME280;2501;51.214;6.768;2023-11-19T06:10:09;100653.38;;;12.41;100.00
4972;BME280;2501;51.214;6.768;2023-11-19T06:12:42;100655.06;;;12.54;100.00
4972;BME280;2501;51.214;6.768;2023-11-19T06:15:11;100655.97;;;12.51;100.00
4972;BME280;2501;51.214;6.768;2023-11-19T06:17:40;100662.97;;;12.57;100.00
4972;BME280;2501;51.214;6.768;2023-11-19T06:20:09;100656.00;;;12.42;100.00
4972;BME280;2501;51.214;6.768;2023-11-19T06:22:37;100651.66;;;12.29;100.00
4972;BME280;2501;51.214;6.768;2023-11-19T06:25:10;100660.44;;;12.13;100.00
4972;BME280;2501;51.214;6.768;2023-11-19T06:27:40;100651.69;;;12.15;100.00
4972;BME280;2501;51.214;6.768;2023-11-19T06:30:10;100644.69;;;12.01;100.00
4972;BME280;2501;51.214;6.768;2023-11-19T06:32:38;100652.56;;;12.14;100.00
4972;BME280;2501;51.214;6.768;2023-11-19T06:35:07;100639.44;;;12.02;100.00
4972;BME280;2501;51.214;6.768;2023-11-19T06:37:38;100645.56;;;12.03;100.00
4972;BME280;2501;51.214;6.768;2023-11-19T06:40:11;100639.41;;;12.16;100.00
4972;BME280;2501;51.214;6.768;2023-11-19T06:42:41;100646.47;;;11.90;100.00
4972;BME280;2501;51.214;6.768;2023-11-19T06:45:09;100658.75;;;11.88;100.00
4972;BME280;2501;51.214;6.768;2023-11-19T06:47:38;100649.06;;;11.99;100.00
4972;BME280;2501;51.214;6.768;2023-11-19T06:50:07;100649.06;;;11.96;100.00
4972;BME280;2501;51.214;6.768;2023-11-19T06:52:37;100651.69;;;11.96;100.00
4972;BME280;2501;51.214;6.768;2023-11-19T06:55:06;100661.34;;;11.97;100.00
4972;BME280;2501;51.214;6.768;2023-11-19T06:57:38;100660.50;;;11.95;100.00
4972;BME280;2501;51.214;6.768;2023-11-19T07:00:07;100649.97;;;11.95;100.00
4972;BME280;2501;51.214;6.768;2023-11-19T07:02:36;100647.34;;;11.93;100.00
4972;BME280;2501;51.214;6.768;2023-11-19T07:05:05;100647.34;;;11.73;100.00
4972;BME280;2501;51.214;6.768;2023-11-19T07:07:34;100649.97;;;11.78;100.00
4972;BME280;2501;51.214;6.768;2023-11-19T07:10:02;100650.88;;;11.77;100.00
4972;BME280;2501;51.214;6.768;2023-11-19T07:12:34;100650.84;;;11.88;100.00
4972;BME280;2501;51.214;6.768;2023-11-19T07:15:06;100648.19;;;11.69;100.00
4972;BME280;2501;51.214;6.768;2023-11-19T07:17:35;100647.34;;;11.72;100.00
4972;BME280;2501;51.214;6.768;2023-11-19T07:20:04;100651.75;;;11.76;100.00
4972;BME280;2501;51.214;6.768;2023-11-19T07:22:44;100660.50;;;11.89;100.00
4972;BME280;2501;51.214;6.768;2023-11-19T07:25:13;100663.97;;;11.68;100.00
4972;BME280;2501;51.214;6.768;2023-11-19T07:27:41;100656.97;;;11.74;100.00
4972;BME280;2501;51.214;6.768;2023-11-19T07:30:13;100660.50;;;11.92;100.00
4972;BME280;2501;51.214;6.768;2023-11-19T07:32:41;100664.00;;;11.84;100.00
4972;BME280;2501;51.214;6.768;2023-11-19T07:35:09;100658.72;;;11.80;100.00
4972;BME280;2501;51.214;6.768;2023-11-19T07:37:38;100654.34;;;11.88;100.00
4972;BME280;2501;51.214;6.768;2023-11-19T07:40:11;100649.97;;;11.89;100.00
4972;BME280;2501;51.214;6.768;2023-11-19T07:42:40;100671.88;;;11.86;100.00
4972;BME280;2501;51.214;6.768;2023-11-19T07:45:11;100673.63;;;11.93;100.00
4972;BME280;2501;51.214;6.768;2023-11-19T07:47:40;100676.25;;;11.79;100.00
4972;BME280;2501;51.214;6.768;2023-11-19T07:50:10;100679.78;;;11.94;100.00
4972;BME280;2501;51.214;6.768;2023-11-19T07:52:39;100682.41;;;11.89;100.00
4972;BME280;2501;51.214;6.768;2023-11-19T07:55:08;100699.88;;;11.72;100.00
4972;BME280;2501;51.214;6.768;2023-11-19T07:57:37;100698.16;;;11.88;100.00
4972;BME280;2501;51.214;6.768;2023-11-19T08:00:07;100708.66;;;11.84;100.00
4972;BME280;2501;51.214;6.768;2023-11-19T08:02:40;100706.91;;;12.05;100.00
4972;BME280;2501;51.214;6.768;2023-11-19T08:05:09;100718.28;;;12.16;100.00
4972;BME280;2501;51.214;6.768;2023-11-19T08:07:37;100724.41;;;12.16;100.00
4972;BME280;2501;51.214;6.768;2023-11-19T08:10:08;100724.44;;;12.12;100.00
4972;BME280;2501;51.214;6.768;2023-11-19T08:12:40;100730.56;;;12.11;100.00
4972;BME280;2501;51.214;6.768;2023-11-19T08:15:09;100738.47;;;12.11;100.00
4972;BME280;2501;51.214;6.768;2023-11-19T08:17:40;100740.19;;;12.15;100.00
4972;BME280;2501;51.214;6.768;2023-11-19T08:20:09;100752.47;;;12.14;100.00
4972;BME280;2501;51.214;6.768;2023-11-19T08:22:38;100759.47;;;12.26;100.00
4972;BME280;2501;51.214;6.768;2023-11-19T08:25:08;100755.06;;;12.39;100.00
4972;BME280;2501;51.214;6.768;2023-11-19T08:27:36;100769.94;;;12.55;100.00
4972;BME280;2501;51.214;6.768;2023-11-19T08:30:12;100763.78;;;12.68;100.00
4972;BME280;2501;51.214;6.768;2023-11-19T08:32:43;100749.69;;;12.81;100.00
4972;BME280;2501;51.214;6.768;2023-11-19T08:35:17;100757.59;;;12.81;100.00
4972;BME280;2501;51.214;6.768;2023-11-19T08:37:46;100748.03;;;12.64;100.00
4972;BME280;2501;51.214;6.768;2023-11-19T08:40:14;100741.94;;;12.37;100.00
4972;BME280;2501;51.214;6.768;2023-11-19T08:42:43;100745.44;;;12.30;100.00
4972;BME280;2501;51.214;6.768;2023-11-19T08:45:11;100736.63;;;12.57;100.00
4972;BME280;2501;51.214;6.768;2023-11-19T08:47:40;100754.16;;;12.50;100.00
4972;BME280;2501;51.214;6.768;2023-11-19T08:50:11;100751.47;;;12.81;100.00
4972;BME280;2501;51.214;6.768;2023-11-19T08:52:39;100741.72;;;13.01;100.00
4972;BME280;2501;51.214;6.768;2023-11-19T08:55:11;100747.97;;;12.77;100.00
4972;BME280;2501;51.214;6.768;2023-11-19T08:57:40;100749.69;;;12.83;100.00
4972;BME280;2501;51.214;6.768;2023-11-19T09:00:09;100740.97;;;12.73;100.00
4972;BME280;2501;51.214;6.768;2023-11-19T09:02:39;100756.75;;;12.81;100.00
4972;BME280;2501;51.214;6.768;2023-11-19T09:05:11;100765.47;;;12.84;100.00
4972;BME280;2501;51.214;6.768;2023-11-19T09:07:39;100753.19;;;12.83;100.00
4972;BME280;2501;51.214;6.768;2023-11-19T09:10:08;100744.41;;;12.90;100.00
4972;BME280;2501;51.214;6.768;2023-11-19T09:12:37;100751.44;;;12.84;100.00
4972;BME280;2501;51.214;6.768;2023-11-19T09:15:06;100752.38;;;12.80;100.00
4972;BME280;2501;51.214;6.768;2023-11-19T09:17:36;100744.44;;;12.84;100.00
4972;BME280;2501;51.214;6.768;2023-11-19T09:20:11;100753.19;;;12.86;100.00
4972;BME280;2501;51.214;6.768;2023-11-19T09:22:40;100746.09;;;13.04;100.00
4972;BME280;2501;51.214;6.768;2023-11-19T09:25:09;100747.06;;;12.81;100.00
4972;BME280;2501;51.214;6.768;2023-11-19T09:27:42;100748.72;;;13.08;100.00
4972;BME280;2501;51.214;6.768;2023-11-19T09:30:14;100753.84;;;13.45;100.00
4972;BME280;2501;51.214;6.768;2023-11-19T09:32:44;100754.66;;;13.56;100.00
4972;BME280;2501;51.214;6.768;2023-11-19T09:35:15;100758.25;;;13.40;100.00
4972;BME280;2501;51.214;6.768;2023-11-19T09:37:44;100753.88;;;13.39;100.00
4972;BME280;2501;51.214;6.768;2023-11-19T09:40:12;100744.31;;;13.16;100.00
4972;BME280;2501;51.214;6.768;2023-11-19T09:42:44;100750.44;;;13.26;100.00
4972;BME280;2501;51.214;6.768;2023-11-19T09:45:14;100753.88;;;13.39;100.00
4972;BME280;2501;51.214;6.768;2023-11-19T09:47:44;100753.97;;;13.17;100.00
4972;BME280;2501;51.214;6.768;2023-11-19T09:50:17;100756.56;;;13.31;100.00
4972;BME280;2501;51.214;6.768;2023-11-19T09:52:47;100742.47;;;13.37;100.00
4972;BME280;2501;51.214;6.768;2023-11-19T09:55:16;100752.13;;;13.36;100.00
4972;BME280;2501;51.214;6.768;2023-11-19T09:57:46;100748.50;;;13.58;100.00
4972;BME280;2501;51.214;6.768;2023-11-19T10:00:17;100738.56;;;13.92;100.00
4972;BME280;2501;51.214;6.768;2023-11-19T10:02:48;100739.59;;;13.76;100.00
4972;BME280;2501;51.214;6.768;2023-11-19T10:05:21;100741.31;;;13.80;100.00
4972;BME280;2501;51.214;6.768;2023-11-19T10:07:52;100736.66;;;14.13;99.09
4972;BME280;2501;51.214;6.768;2023-11-19T10:10:21;100737.56;;;14.07;99.78
4972;BME280;2501;51.214;6.768;2023-11-19T10:12:51;100738.44;;;14.08;97.56
4972;BME280;2501;51.214;6.768;2023-11-19T10:15:21;100737.53;;;14.10;97.50
4972;BME280;2501;51.214;6.768;2023-11-19T10:17:52;100730.25;;;14.41;96.28
4972;BME280;2501;51.214;6.768;2023-11-19T10:20:25;100716.59;;;13.95;96.62
4972;BME280;2501;51.214;6.768;2023-11-19T10:22:55;100728.94;;;13.88;97.96
4972;BME280;2501;51.214;6.768;2023-11-19T10:25:25;100719.25;;;13.92;97.94
4972;BME280;2501;51.214;6.768;2023-11-19T10:27:54;100712.22;;;13.89;98.47
4972;BME280;2501;51.214;6.768;2023-11-19T10:30:25;100722.84;;;13.82;98.54
4972;BME280;2501;51.214;6.768;2023-11-19T10:33:05;100730.03;;;13.63;99.26
4972;BME280;2501;51.214;6.768;2023-11-19T10:35:50;100728.06;;;13.88;97.84
4972;BME280;2501;51.214;6.768;2023-11-19T10:38:19;100732.44;;;13.90;97.76
4972;BME280;2501;51.214;6.768;2023-11-19T10:40:48;100731.78;;;13.59;98.76
4972;BME280;2501;51.214;6.768;2023-11-19T10:43:17;100713.09;;;13.88;98.66
4972;BME280;2501;51.214;6.768;2023-11-19T10:45:47;100735.78;;;14.09;95.88
4972;BME280;2501;51.214;6.768;2023-11-19T10:48:23;100726.94;;;14.18;94.70
4972;BME280;2501;51.214;6.768;2023-11-19T10:50:56;100721.44;;;14.42;93.42
4972;BME280;2501;51.214;6.768;2023-11-19T10:53:25;100731.97;;;14.39;93.15
4972;BME280;2501;51.214;6.768;2023-11-19T10:55:56;100740.03;;;14.27;93.46
4972;BME280;2501;51.214;6.768;2023-11-19T10:58:32;100719.84;;;14.23;94.06
4972;BME280;2501;51.214;6.768;2023-11-19T11:01:09;100719.59;;;14.53;92.45
4972;BME280;2501;51.214;6.768;2023-11-19T11:03:41;100715.22;;;14.48;91.96
4972;BME280;2501;51.214;6.768;2023-11-19T11:06:14;100714.56;;;14.23;92.37
4972;BME280;2501;51.214;6.768;2023-11-19T11:08:42;100714.66;;;14.15;92.39
4972;BME280;2501;51.214;6.768;2023-11-19T11:11:13;100711.88;;;14.29;91.78
4972;BME280;2501;51.214;6.768;2023-11-19T11:13:47;100714.38;;;14.44;90.43
4972;BME280;2501;51.214;6.768;2023-11-19T11:16:18;100717.19;;;14.26;91.65
4972;BME280;2501;51.214;6.768;2023-11-19T11:18:55;100712.34;;;13.76;95.00
4972;BME280;2501;51.214;6.768;2023-11-19T11:21:27;100712.97;;;14.05;93.41
4972;BME280;2501;51.214;6.768;2023-11-19T11:24:16;100713.81;;;14.12;93.24
4972;BME280;2501;51.214;6.768;2023-11-19T11:27:02;100710.47;;;13.90;92.86
4972;BME280;2501;51.214;6.768;2023-11-19T11:29:41;100711.13;;;14.18;93.43
4972;BME280;2501;51.214;6.768;2023-11-19T11:32:21;100697.94;;;14.15;93.59
4972;BME280;2501;51.214;6.768;2023-11-19T11:35:02;100701.34;;;14.24;93.80
4972;BME280;2501;51.214;6.768;2023-11-19T11:37:45;100696.09;;;14.23;93.53
4972;BME280;2501;51.214;6.768;2023-11-19T11:40:14;100712.91;;;14.11;93.90
4972;BME280;2501;51.214;6.768;2023-11-19T11:42:43;100702.56;;;13.87;95.30
4972;BME280;2501;51.214;6.768;2023-11-19T11:45:12;100686.72;;;13.91;95.96
4972;BME280;2501;51.214;6.768;2023-11-19T11:48:06;100686.72;;;13.91;96.93
4972;BME280;2501;51.214;6.768;2023-11-19T11:50:51;100690.94;;;14.14;96.36
4972;BME280;2501;51.214;6.768;2023-11-19T11:53:23;100682.88;;;14.26;95.16
4972;BME280;2501;51.214;6.768;2023-11-19T11:55:54;100683.16;;;14.00;96.06
4972;BME280;2501;51.214;6.768;2023-11-19T11:58:30;100682.16;;;14.10;96.36
4972;BME280;2501;51.214;6.768;2023-11-19T12:01:01;100675.66;;;14.46;92.40
4972;BME280;2501;51.214;6.768;2023-11-19T12:03:32;100678.31;;;14.46;90.57
4972;BME280;2501;51.214;6.768;2023-11-19T12:06:01;100684.22;;;14.67;90.54
4972;BME280;2501;51.214;6.768;2023-11-19T12:08:34;100677.91;;;14.80;88.04
4972;BME280;2501;51.214;6.768;2023-11-19T12:11:04;100663.66;;;14.91;86.47
4972;BME280;2501;51.214;6.768;2023-11-19T12:13:47;100663.09;;;14.68;86.19
4972;BME280;2501;51.214;6.768;2023-11-19T12:16:16;100669.34;;;14.59;87.84
4972;BME280;2501;51.214;6.768;2023-11-19T12:18:47;100660.56;;;14.59;88.81
4972;BME280;2501;51.214;6.768;2023-11-19T12:21:27;100655.22;;;14.63;89.03
4972;BME280;2501;51.214;6.768;2023-11-19T12:24:01;100651.00;;;14.49;88.74
4972;BME280;2501;51.214;6.768;2023-11-19T12:26:37;100660.53;;;14.60;89.04
4972;BME280;2501;51.214;6.768;2023-11-19T12:29:06;100654.56;;;14.45;89.60
4972;BME280;2501;51.214;6.768;2023-11-19T12:31:34;100664.44;;;14.24;91.27
4972;BME280;2501;51.214;6.768;2023-11-19T12:34:07;100641.66;;;14.19;92.06
4972;BME280;2501;51.214;6.768;2023-11-19T12:36:38;100647.88;;;14.12;93.29
4972;BME280;2501;51.214;6.768;2023-11-19T12:39:10;100666.28;;;14.16;93.63
4972;BME280;2501;51.214;6.768;2023-11-19T12:41:52;100662.16;;;13.88;96.19
4972;BME280;2501;51.214;6.768;2023-11-19T12:44:21;100651.91;;;13.53;100.00
4972;BME280;2501;51.214;6.768;2023-11-19T12:46:59;100656.41;;;13.34;100.00
4972;BME280;2501;51.214;6.768;2023-11-19T12:49:28;100654.84;;;13.00;100.00
4972;BME280;2501;51.214;6.768;2023-11-19T12:51:56;100655.88;;;12.70;100.00
4972;BME280;2501;51.214;6.768;2023-11-19T12:54:37;100650.44;;;13.08;100.00
4972;BME280;2501;51.214;6.768;2023-11-19T12:57:06;100655.63;;;13.23;100.00
4972;BME280;2501;51.214;6.768;2023-11-19T12:59:34;100663.44;;;13.38;100.00
4972;BME280;2501;51.214;6.768;2023-11-19T13:02:03;100671.50;;;13.15;100.00
4972;BME280;2501;51.214;6.768;2023-11-19T13:04:32;100669.69;;;13.23;100.00
4972;BME280;2501;51.214;6.768;2023-11-19T13:07:01;100662.50;;;13.50;100.00
4972;BME280;2501;51.214;6.768;2023-11-19T13:09:31;100663.41;;;13.40;100.00
4972;BME280;2501;51.214;6.768;2023-11-19T13:12:13;100671.31;;;13.43;100.00
4972;BME280;2501;51.214;6.768;2023-11-19T13:14:42;100668.63;;;13.50;100.00
4972;BME280;2501;51.214;6.768;2023-11-19T13:17:15;100665.72;;;13.84;100.00
4972;BME280;2501;51.214;6.768;2023-11-19T13:19:47;100662.84;;;14.07;100.00